Time;durP1;ratioP1;P1;durP2;ratioP2;P2;SDS_P1;SDS_P2;PMS_P1;PMS_P2;Temp;Humidity;BMP_temperature;BMP_pressure;BME280_temperature;BME280_humidity;BME280_pressure;Samples;Min_cycle;Max_cycle;Signal;HPM_P1;HPM_P2
2023/04/04 00:02:33;;;;;;;7.00;2.40;;;2.00;83.90;;;;;;10398444;28;20280;-77
2023/04/04 00:07:59;;;;;;;6.90;2.50;;;2.10;75.00;;;;;;10404391;28;20221;-77
2023/04/04 00:13:20;;;;;;;4.60;1.90;;;2.20;79.20;;;;;;10397333;28;20273;-78
2023/04/04 00:18:41;;;;;;;4.40;2.40;;;2.20;77.90;;;;;;10397265;28;20445;-78
2023/04/04 00:24:03;;;;;;;6.67;2.57;;;2.20;77.00;;;;;;10420949;28;20516;-78
2023/04/04 00:29:24;;;;;;;3.50;2.00;;;2.10;77.70;;;;;;10419702;28;20304;-78
2023/04/04 00:34:45;;;;;;;5.53;2.00;;;2.10;78.70;;;;;;10419805;28;20197;-78
2023/04/04 00:40:07;;;;;;;3.07;1.23;;;1.90;74.10;;;;;;10437675;28;20227;-78
2023/04/04 00:45:28;;;;;;;4.80;2.10;;;1.80;71.10;;;;;;10428606;28;20255;-80
2023/04/04 00:50:50;;;;;;;6.20;2.10;;;1.90;59.90;;;;;;10415354;28;20205;-78
2023/04/04 00:56:12;;;;;;;5.43;1.00;;;1.70;58.60;;;;;;10397292;28;20224;-77
2023/04/04 01:01:35;;;;;;;5.33;1.90;;;1.70;56.00;;;;;;10382379;28;20224;-78
2023/04/04 01:06:59;;;;;;;5.13;1.40;;;1.70;55.20;;;;;;10396587;28;20231;-77
2023/04/04 01:12:20;;;;;;;6.40;2.87;;;1.60;50.80;;;;;;10395177;28;20209;-77
2023/04/04 01:17:43;;;;;;;5.50;2.60;;;1.70;52.90;;;;;;10394442;28;20205;-77
2023/04/04 01:23:05;;;;;;;5.10;1.90;;;1.70;49.30;;;;;;10411056;28;20244;-79
2023/04/04 01:28:28;;;;;;;7.70;2.07;;;1.80;51.00;;;;;;10421377;28;20252;-77
2023/04/04 01:33:57;;;;;;;3.90;2.10;;;1.80;52.60;;;;;;10421272;28;20284;-77
2023/04/04 01:39:31;;;;;;;5.00;1.60;;;1.80;56.00;;;;;;10435150;28;20417;-78
2023/04/04 01:44:56;;;;;;;5.17;1.40;;;1.80;57.10;;;;;;10425793;28;20232;-77
2023/04/04 01:50:24;;;;;;;1.50;0.90;;;1.80;56.40;;;;;;10394473;28;20200;-78
2023/04/04 01:55:46;;;;;;;5.70;1.30;;;1.80;46.10;;;;;;10380099;28;20199;-78
2023/04/04 02:01:09;;;;;;;5.53;1.53;;;1.70;46.00;;;;;;10387548;28;20202;-78
2023/04/04 02:06:31;;;;;;;10.13;1.53;;;1.60;48.60;;;;;;10416407;28;20227;-78
2023/04/04 02:11:53;;;;;;;3.47;1.17;;;1.50;47.00;;;;;;10416197;28;20199;-78
2023/04/04 02:17:15;;;;;;;42.30;19.33;;;1.40;47.10;;;;;;10442339;28;20229;-78
2023/04/04 02:22:36;;;;;;;49.63;22.13;;;;;;;;;;10442171;28;20273;-77
2023/04/04 02:27:58;;;;;;;64.00;27.77;;;1.20;48.50;;;;;;10420225;28;20233;-77
2023/04/04 02:33:20;;;;;;;19.83;10.23;;;1.20;50.40;;;;;;10412824;28;20200;-77
2023/04/04 02:38:42;;;;;;;32.33;14.70;;;1.20;49.40;;;;;;10414265;28;20199;-78
2023/04/04 02:44:03;;;;;;;16.73;8.63;;;1.20;49.30;;;;;;10423060;28;20250;-78
2023/04/04 02:49:25;;;;;;;15.87;7.80;;;1.10;49.20;;;;;;10386987;28;20227;-77
2023/04/04 02:54:47;;;;;;;15.03;6.80;;;1.00;50.40;;;;;;10386438;28;20197;-79
2023/04/04 03:00:19;;;;;;;15.57;8.97;;;1.00;49.60;;;;;;10422364;28;20287;-79
2023/04/04 03:05:39;;;;;;;15.87;8.83;;;0.90;51.60;;;;;;10424810;28;20278;-78
2023/04/04 03:11:01;;;;;;;15.70;5.80;;;0.90;50.80;;;;;;10440571;28;20185;-78
2023/04/04 03:16:23;;;;;;;13.50;5.47;;;1.00;51.40;;;;;;10425510;28;20220;-78
2023/04/04 03:21:45;;;;;;;8.17;3.40;;;0.90;51.10;;;;;;10404806;28;20488;-77
2023/04/04 03:27:06;;;;;;;8.23;3.90;;;0.90;54.00;;;;;;10441384;28;20226;-77
2023/04/04 03:32:27;;;;;;;11.17;5.60;;;0.80;53.20;;;;;;10434730;28;20205;-77
2023/04/04 03:37:49;;;;;;;18.37;7.20;;;0.70;58.90;;;;;;10440009;28;20196;-77
2023/04/04 03:43:11;;;;;;;19.20;7.07;;;0.70;60.70;;;;;;10425556;28;20228;-77
2023/04/04 03:48:33;;;;;;;13.63;5.57;;;0.70;62.10;;;;;;10408120;28;20251;-77
2023/04/04 03:53:57;;;;;;;10.63;4.83;;;0.70;69.80;;;;;;10439185;28;20197;-77
2023/04/04 03:59:19;;;;;;;12.73;5.53;;;0.70;70.00;;;;;;10425163;28;20463;-77
2023/04/04 04:04:40;;;;;;;16.53;7.60;;;0.60;79.00;;;;;;10406264;28;20198;-78
2023/04/04 04:10:04;;;;;;;8.93;4.27;;;0.50;81.20;;;;;;10397367;28;20247;-78
2023/04/04 04:15:26;;;;;;;7.27;2.90;;;0.60;82.20;;;;;;10411275;28;20197;-78
2023/04/04 04:20:49;;;;;;;4.17;2.33;;;0.50;86.10;;;;;;10407802;28;20223;-78
2023/04/04 04:26:11;;;;;;;6.03;2.47;;;0.50;90.20;;;;;;10382070;28;20259;-77
2023/04/04 04:31:33;;;;;;;6.47;2.93;;;0.60;91.20;;;;;;10383340;28;20196;-77
2023/04/04 04:36:54;;;;;;;8.20;4.53;;;0.70;90.20;;;;;;10418862;28;20216;-78
2023/04/04 04:42:20;;;;;;;14.50;4.70;;;0.70;91.10;;;;;;10423117;28;20297;-77
2023/04/04 04:47:48;;;;;;;8.03;4.60;;;0.80;92.60;;;;;;10431554;28;20287;-78
2023/04/04 04:53:14;;;;;;;7.63;3.43;;;0.80;91.60;;;;;;10395810;28;20260;-78
2023/04/04 04:58:38;;;;;;;21.57;9.27;;;0.80;92.80;;;;;;10395427;28;20384;-78
2023/04/04 05:04:02;;;;;;;26.83;11.27;;;0.70;92.80;;;;;;10395242;28;20232;-78
2023/04/04 05:09:31;;;;;;;19.27;8.23;;;0.60;93.60;;;;;;10409187;28;20227;-78
2023/04/04 05:14:53;;;;;;;14.83;7.70;;;0.80;93.60;;;;;;10394895;28;20197;-78
2023/04/04 05:20:14;;;;;;;32.67;13.67;;;1.00;94.30;;;;;;10394523;28;20259;-77
2023/04/04 05:25:39;;;;;;;21.07;9.40;;;1.20;94.90;;;;;;10423580;28;20233;-77
2023/04/04 05:31:01;;;;;;;20.57;8.77;;;1.20;95.00;;;;;;10415429;28;20199;-77
2023/04/04 05:36:25;;;;;;;8.80;4.63;;;1.20;94.80;;;;;;10434318;28;20525;-78
2023/04/04 05:41:52;;;;;;;7.53;3.27;;;1.20;95.20;;;;;;10394290;28;20452;-79
2023/04/04 05:47:14;;;;;;;9.37;2.90;;;1.20;95.60;;;;;;10380059;28;20235;-79
2023/04/04 05:52:40;;;;;;;11.57;2.73;;;1.00;95.00;;;;;;10380026;28;20523;-78
2023/04/04 05:58:05;;;;;;;6.23;3.70;;;0.90;95.30;;;;;;10393985;28;20193;-78
2023/04/04 06:03:39;;;;;;;7.80;3.37;;;1.00;96.50;;;;;;10393453;28;20256;-77
2023/04/04 06:09:05;;;;;;;29.43;13.20;;;1.10;96.40;;;;;;10414321;28;20247;-77
2023/04/04 06:14:28;;;;;;;41.07;21.80;;;1.20;96.70;;;;;;10434320;28;20188;-77
2023/04/04 06:19:52;;;;;;;17.43;9.53;;;1.40;95.20;;;;;;10434644;28;20194;-77
2023/04/04 06:25:15;;;;;;;38.30;19.87;;;1.50;95.30;;;;;;10391557;28;20211;-77
2023/04/04 06:30:36;;;;;;;9.83;5.53;;;1.70;94.40;;;;;;10407267;28;20196;-77
2023/04/04 06:35:59;;;;;;;18.33;8.13;;;1.70;92.40;;;;;;10399006;28;20289;-78
2023/04/04 06:41:21;;;;;;;21.83;6.53;;;2.70;83.90;;;;;;10429760;28;20202;-77
2023/04/04 06:46:45;;;;;;;6.50;3.20;;;4.10;43.40;;;;;;10434757;28;20310;-77
2023/04/04 06:52:06;;;;;;;23.30;5.00;;;4.90;28.90;;;;;;10419806;28;20210;-77
2023/04/04 06:57:28;;;;;;;12.73;2.83;;;5.50;24.20;;;;;;10387887;28;20263;-78
2023/04/04 07:02:57;;;;;;;25.53;9.00;;;6.10;20.60;;;;;;10450924;28;20579;-80
2023/04/04 07:08:19;;;;;;;16.67;5.70;;;6.50;19.60;;;;;;10419886;28;20265;-79
2023/04/04 07:13:40;;;;;;;7.60;2.33;;;6.90;18.80;;;;;;10449184;28;20202;-78
2023/04/04 07:19:04;;;;;;;27.87;8.87;;;6.90;17.90;;;;;;10421693;28;20208;-79
2023/04/04 07:24:26;;;;;;;14.13;5.10;;;6.10;19.40;;;;;;10419290;28;20203;-77
2023/04/04 07:29:47;;;;;;;30.83;11.17;;;4.80;22.60;;;;;;10433701;28;20243;-78
2023/04/04 07:35:08;;;;;;;31.37;10.00;;;4.20;30.00;;;;;;10417421;28;20387;-88
2023/04/04 07:40:30;;;;;;;33.23;9.80;;;3.90;54.40;;;;;;10457386;28;20277;-92
2023/04/04 07:45:54;;;;;;;17.90;7.10;;;3.60;83.90;;;;;;10467042;28;20235;-79
2023/04/04 07:51:16;;;;;;;16.33;7.13;;;3.50;95.70;;;;;;10433488;28;20397;-80
2023/04/04 07:56:37;;;;;;;9.23;3.93;;;3.30;97.90;;;;;;10469114;28;20226;-86
2023/04/04 08:01:58;;;;;;;10.03;4.13;;;3.00;99.90;;;;;;10423339;28;20257;-80
2023/04/04 08:07:19;;;;;;;24.17;13.07;;;3.00;99.90;;;;;;10401964;28;20252;-92
2023/04/04 08:12:41;;;;;;;22.17;14.90;;;3.00;99.90;;;;;;10444671;28;20275;-78
2023/04/04 08:18:02;;;;;;;13.47;8.17;;;4.10;99.90;;;;;;10474740;28;20289;-80
2023/04/04 08:23:24;;;;;;;12.63;7.77;;;5.40;98.00;;;;;;10453468;28;20241;-80
2023/04/04 08:28:45;;;;;;;13.17;4.50;;;7.00;93.20;;;;;;10435174;28;20316;-81
2023/04/04 08:34:09;;;;;;;7.80;3.13;;;7.70;65.40;;;;;;10474244;28;20195;-85
2023/04/04 08:39:31;;;;;;;6.10;3.33;;;7.40;49.00;;;;;;10478146;28;20254;-79
2023/04/04 08:44:54;;;;;;;6.77;3.10;;;6.90;55.70;;;;;;10466487;28;20241;-78
2023/04/04 08:50:16;;;;;;;15.30;5.87;;;7.70;34.50;;;;;;10432411;28;20625;-79
2023/04/04 08:55:41;;;;;;;10.33;4.17;;;8.60;24.50;;;;;;10432927;28;20194;-79
2023/04/04 09:01:02;;;;;;;4.70;3.00;;;9.20;22.70;;;;;;10413723;28;20279;-79
2023/04/04 09:06:25;;;;;;;7.97;3.43;;;9.70;18.10;;;;;;10389954;28;20233;-85
2023/04/04 09:11:47;;;;;;;6.97;2.93;;;10.30;16.90;;;;;;10415606;28;20498;-79
2023/04/04 09:17:12;;;;;;;8.93;3.70;;;10.80;13.60;;;;;;10431034;28;20212;-79
2023/04/04 09:22:33;;;;;;;6.10;2.97;;;11.30;11.00;;;;;;10402583;28;20185;-80
2023/04/04 09:27:56;;;;;;;15.27;6.03;;;11.10;10.60;;;;;;10402273;28;20291;-78
2023/04/04 09:33:20;;;;;;;5.80;3.27;;;11.10;7.80;;;;;;10415758;28;20205;-78
2023/04/04 09:38:47;;;;;;;13.40;5.57;;;9.70;7.40;;;;;;10430243;28;20190;-77
2023/04/04 09:44:11;;;;;;;6.47;3.20;;;9.60;6.60;;;;;;10410138;28;20465;-79
2023/04/04 09:49:33;;;;;;;27.03;9.53;;;9.80;5.90;;;;;;10415601;28;20243;-78
2023/04/04 09:54:58;;;;;;;19.67;6.97;;;10.40;5.20;;;;;;10429434;28;20468;-78
2023/04/04 10:00:20;;;;;;;4.10;2.67;;;11.10;3.90;;;;;;10426324;28;20240;-90
2023/04/04 10:05:43;;;;;;;4.73;2.30;;;11.60;3.40;;;;;;10415724;28;20189;-78
2023/04/04 10:11:05;;;;;;;2.60;1.40;;;;;;;;;;10388438;28;20212;-78
2023/04/04 10:16:32;;;;;;;10.00;3.30;;;;;;;;;;10408074;28;20214;-90
2023/04/04 10:21:54;;;;;;;5.50;2.50;;;;;;;;;;10447615;28;20220;-78
2023/04/04 10:27:15;;;;;;;5.53;1.97;;;;;;;;;;10437093;28;20299;-77
2023/04/04 10:32:52;;;;;;;18.77;6.53;;;;;;;;;;10435301;28;20209;-77
2023/04/04 10:38:15;;;;;;;5.87;2.43;;;;;;;;;;10396761;28;20202;-78
2023/04/04 10:43:40;;;;;;;9.83;4.53;;;;;;;;;;10396163;28;20280;-77
2023/04/04 10:49:02;;;;;;;5.90;2.63;;;;;;;;;;10452903;28;20303;-79
2023/04/04 10:54:25;;;;;;;6.50;3.10;;;;;;;;;;10457763;28;20194;-79
2023/04/04 10:59:57;;;;;;;14.30;6.53;;;;;;;;;;10435291;28;20249;-78
2023/04/04 11:05:19;;;;;;;5.17;3.00;;;;;;;;;;10411139;28;20287;-78
2023/04/04 11:10:42;;;;;;;4.13;1.20;;;;;;;;;;10408485;28;20230;-77
2023/04/04 11:16:14;;;;;;;4.90;3.30;;;;;;;;;;10431072;28;20230;-79
2023/04/04 11:21:38;;;;;;;6.83;3.60;;;;;;;;;;10398454;28;20244;-78
2023/04/04 11:26:59;;;;;;;12.30;5.13;;;;;;;;;;10434678;28;20238;-78
2023/04/04 11:32:42;;;;;;;5.97;2.10;;;;;;;;;;10412586;28;20311;-78
2023/04/04 11:38:12;;;;;;;12.17;5.63;;;;;;;;;;10426562;28;21134;-78
2023/04/04 11:43:33;;;;;;;16.20;6.97;;;;;;;;;;10432651;28;20284;-78
2023/04/04 11:48:57;;;;;;;13.37;5.83;;;;;;;;;;10431829;28;20246;-79
2023/04/04 11:54:19;;;;;;;6.23;2.73;;;;;;;;;;10450568;28;20275;-78
2023/04/04 11:59:41;;;;;;;27.10;12.93;;;;;;;;;;10434368;28;20210;-77
2023/04/04 12:05:05;;;;;;;11.63;7.97;;;;;;;;;;10396191;28;20226;-77
2023/04/04 12:10:30;;;;;;;21.03;10.60;;;;;;;;;;10434147;28;20223;-77
2023/04/04 12:15:51;;;;;;;10.80;5.10;;;;;;;;;;10451332;28;20241;-78
2023/04/04 12:21:14;;;;;;;6.33;3.60;;;;;;;;;;10441246;28;20202;-77
2023/04/04 12:26:37;;;;;;;6.93;3.30;;;;;;;;;;10404596;28;20234;-77
2023/04/04 12:31:58;;;;;;;8.20;3.73;;;;;;;;;;10405548;28;20199;-78
2023/04/04 12:37:22;;;;;;;17.83;10.43;;;;;;;;;;10406242;28;20226;-77
2023/04/04 12:42:48;;;;;;;10.23;5.83;;;;;;;;;;10413264;28;20238;-76
2023/04/04 12:48:11;;;;;;;3.83;1.63;;;;;;;;;;10428301;28;20234;-78
2023/04/04 12:53:32;;;;;;;8.13;3.73;;;;;;;;;;10432472;28;20257;-78
2023/04/04 12:59:00;;;;;;;15.23;7.43;;;;;;;;;;10404005;28;20286;-79
2023/04/04 13:04:22;;;;;;;3.83;2.10;;;;;;;;;;10430590;28;20269;-76
2023/04/04 13:09:51;;;;;;;11.73;5.03;;;;;;;;;;10431980;28;20237;-92
2023/04/04 13:15:13;;;;;;;24.43;12.33;;;;;;;;;;10406336;28;20206;-80
2023/04/04 13:20:35;;;;;;;12.03;5.90;;;;;;;;;;10431749;28;20224;-84
2023/04/04 13:25:59;;;;;;;5.53;2.83;;;;;;;;;;10403295;28;20209;-79
2023/04/04 13:31:21;;;;;;;6.60;3.30;;;;;;;;;;10426866;28;20459;-76
2023/04/04 13:36:43;;;;;;;5.73;2.47;;;;;;;;;;10431589;28;20197;-78
2023/04/04 13:42:04;;;;;;;8.57;4.27;;;;;;;;;;10440864;28;20214;-78
2023/04/04 13:47:26;;;;;;;11.33;6.40;;;;;;;;;;10412127;28;20231;-79
2023/04/04 13:52:48;;;;;;;3.17;1.53;;;;;;;;;;10414274;28;20188;-78
2023/04/04 13:58:09;;;;;;;9.03;4.57;;;;;;;;;;10431941;28;20207;-78
2023/04/04 14:03:31;;;;;;;17.17;6.13;;;;;;;;;;10425483;28;20264;-78
2023/04/04 14:08:52;;;;;;;6.70;3.43;;;;;;;;;;10425596;28;20232;-78
2023/04/04 14:14:13;;;;;;;11.40;4.20;;;;;;;;;;10427701;28;20200;-79
2023/04/04 14:19:37;;;;;;;19.27;8.50;;;;;;;;;;10425975;28;20210;-77
2023/04/04 14:24:59;;;;;;;13.83;6.00;;;;;;;;;;10426853;28;20325;-80
2023/04/04 14:30:21;;;;;;;15.07;6.70;;;;;;;;;;10424348;28;20530;-80
2023/04/04 14:35:42;;;;;;;11.87;7.13;;;;;;;;;;10430423;28;20247;-77
2023/04/04 14:41:04;;;;;;;15.70;8.00;;;;;;;;;;10428748;28;20505;-77
2023/04/04 14:46:25;;;;;;;9.90;4.10;;;;;;;;;;10431202;28;20225;-77
2023/04/04 14:51:47;;;;;;;8.63;4.17;;;;;;;;;;10388749;28;20472;-77
2023/04/04 14:57:09;;;;;;;11.60;6.60;;;;;;;;;;10404128;28;20597;-78
2023/04/04 15:02:30;;;;;;;9.40;4.73;;;;;;;;;;10410661;28;20271;-77
2023/04/04 15:07:52;;;;;;;11.80;3.80;;;;;;;;;;10398370;28;20228;-77
2023/04/04 15:13:13;;;;;;;15.33;8.03;;;;;;;;;;10398477;28;20199;-77
2023/04/04 15:18:36;;;;;;;12.77;6.63;;;;;;;;;;10418164;28;20199;-76
2023/04/04 15:23:58;;;;;;;12.73;5.87;;;;;;;;;;10435966;28;20202;-77
2023/04/04 15:29:19;;;;;;;11.77;5.43;;;;;;;;;;10436652;28;20571;-77
2023/04/04 15:35:03;;;;;;;16.47;8.30;;;;;;;;;;10435196;28;20219;-77
2023/04/04 15:40:25;;;;;;;14.93;6.83;;;;;;;;;;10439039;28;20261;-77
2023/04/04 15:45:46;;;;;;;21.40;11.10;;;;;;;;;;10450847;28;20239;-77
2023/04/04 15:51:09;;;;;;;11.37;6.23;;;;;;;;;;10448118;28;20225;-77
2023/04/04 15:56:30;;;;;;;12.17;5.80;;;;;;;;;;10398364;28;20193;-77
2023/04/04 16:01:51;;;;;;;8.63;3.67;;;;;;;;;;10414542;28;20207;-77
2023/04/04 16:07:13;;;;;;;8.40;4.53;;;;;;;;;;10419988;28;20305;-78
2023/04/04 16:12:35;;;;;;;11.57;4.93;;;;;;;;;;10424559;28;20205;-77
2023/04/04 16:17:58;;;;;;;20.93;8.00;;;;;;;;;;10438238;28;20207;-77
2023/04/04 16:23:20;;;;;;;17.20;8.30;;;;;;;;;;10433838;28;20258;-79
2023/04/04 16:28:41;;;;;;;14.30;6.70;;;;;;;;;;10372657;28;20661;-78
2023/04/04 16:34:04;;;;;;;31.47;15.13;;;;;;;;;;10397058;28;20192;-78
2023/04/04 16:39:26;;;;;;;19.23;10.20;;;;;;;;;;10397408;28;20493;-77
2023/04/04 16:44:48;;;;;;;13.13;5.93;;;;;;;;;;10440588;28;20236;-77
2023/04/04 16:50:10;;;;;;;12.00;6.43;;;4.80;22.60;;;;;;10423143;28;20250;-77
2023/04/04 16:55:31;;;;;;;48.43;21.07;;;4.50;15.50;;;;;;10438517;28;20212;-78
2023/04/04 17:00:52;;;;;;;38.30;19.37;;;4.40;15.60;;;;;;10423990;28;20203;-78
2023/04/04 17:06:13;;;;;;;29.93;15.33;;;4.40;16.30;;;;;;10424206;28;20544;-77
2023/04/04 17:11:35;;;;;;;28.53;14.67;;;4.50;16.90;;;;;;10401709;28;20231;-77
2023/04/04 17:16:59;;;;;;;27.93;10.50;;;4.60;16.90;;;;;;10435352;28;20685;-76
2023/04/04 17:22:21;;;;;;;28.80;12.67;;;4.40;16.80;;;;;;10435853;28;20505;-76
2023/04/04 17:27:42;;;;;;;31.80;15.70;;;4.20;17.80;;;;;;10392535;28;20235;-77
2023/04/04 17:33:03;;;;;;;31.33;13.87;;;4.10;18.50;;;;;;10396121;28;20192;-77
2023/04/04 17:38:25;;;;;;;35.70;17.03;;;4.10;18.70;;;;;;10401443;28;20227;-76
2023/04/04 17:43:46;;;;;;;42.10;25.07;;;4.10;19.20;;;;;;10408797;28;20276;-77
2023/04/04 17:49:07;;;;;;;28.33;12.37;;;4.00;20.10;;;;;;10431954;28;20261;-77
2023/04/04 17:54:29;;;;;;;34.27;16.30;;;3.80;20.40;;;;;;10444247;28;20224;-78
2023/04/04 17:59:50;;;;;;;39.00;17.37;;;3.70;21.40;;;;;;10456950;28;20203;-76
2023/04/04 18:05:13;;;;;;;33.80;16.37;;;3.40;23.40;;;;;;10399680;28;20486;-77
2023/04/04 18:10:34;;;;;;;26.27;12.23;;;3.20;24.00;;;;;;10419860;28;20249;-77
2023/04/04 18:15:55;;;;;;;22.67;9.93;;;3.10;1.00;;;;;;10419839;28;20203;-79
2023/04/04 18:21:17;;;;;;;13.10;5.40;;;2.90;1.00;;;;;;10434725;28;20193;-78
2023/04/04 18:26:38;;;;;;;10.13;4.17;;;2.80;1.00;;;;;;10430101;28;20409;-76
2023/04/04 18:32:00;;;;;;;12.73;5.20;;;2.70;1.00;;;;;;10435870;28;20220;-77
2023/04/04 18:37:22;;;;;;;22.70;10.37;;;2.60;1.00;;;;;;10430166;28;20207;-77
2023/04/04 18:42:43;;;;;;;49.77;22.60;;;2.50;1.00;;;;;;10417559;28;20233;-76
2023/04/04 18:48:04;;;;;;;39.57;19.53;;;2.60;1.00;;;;;;10433998;28;20232;-77
2023/04/04 18:53:29;;;;;;;44.47;21.63;;;2.60;1.00;;;;;;10402336;28;20389;-77
2023/04/04 18:58:50;;;;;;;56.80;26.63;;;2.60;1.00;;;;;;10478141;28;20215;-77
2023/04/04 19:04:13;;;;;;;62.70;28.33;;;2.50;1.00;;;;;;10446272;28;20277;-77
2023/04/04 19:09:36;;;;;;;91.50;36.73;;;2.60;1.00;;;;;;10425185;28;20245;-77
2023/04/04 19:14:59;;;;;;;116.10;44.60;;;2.50;1.00;;;;;;10425158;28;20260;-78
2023/04/04 19:20:19;;;;;;;143.63;49.10;;;2.50;28.30;;;;;;10428890;28;20210;-76
2023/04/04 19:25:41;;;;;;;147.17;49.43;;;2.50;29.10;;;;;;10440306;28;20190;-77
2023/04/04 19:31:07;;;;;;;141.20;48.47;;;2.40;29.90;;;;;;10430575;28;20293;-77
2023/04/04 19:36:34;;;;;;;84.33;33.57;;;2.40;31.40;;;;;;10435420;28;20467;-77
2023/04/04 19:41:56;;;;;;;53.47;23.50;;;2.30;32.60;;;;;;10463270;28;20426;-76
2023/04/04 19:47:19;;;;;;;39.23;17.63;;;2.20;35.00;;;;;;10439559;28;20409;-77
2023/04/04 19:52:40;;;;;;;42.63;18.60;;;;;;;;;;10458540;28;20206;-77
2023/04/04 19:58:02;;;;;;;50.20;19.67;;;2.00;40.50;;;;;;10490716;28;20479;-81
2023/04/04 20:03:35;;;;;;;45.33;18.83;;;2.10;42.10;;;;;;10453062;28;20217;-77
2023/04/04 20:08:58;;;;;;;40.40;19.17;;;2.00;42.10;;;;;;10434997;28;20234;-76
2023/04/04 20:14:20;;;;;;;46.57;22.93;;;2.00;44.50;;;;;;10424534;28;20263;-78
2023/04/04 20:19:41;;;;;;;55.97;25.57;;;1.90;44.20;;;;;;10423384;28;20255;-78
2023/04/04 20:25:10;;;;;;;61.47;26.53;;;1.70;51.90;;;;;;10413616;28;20226;-77
2023/04/04 20:30:32;;;;;;;53.17;24.57;;;1.80;54.80;;;;;;10398075;28;20230;-75
2023/04/04 20:35:54;;;;;;;55.97;24.00;;;1.70;59.70;;;;;;10419990;28;20207;-78
2023/04/04 20:41:22;;;;;;;59.03;26.97;;;1.70;57.20;;;;;;10423900;28;20591;-77
2023/04/04 20:46:43;;;;;;;51.73;24.90;;;1.70;57.90;;;;;;10427906;28;20245;-78
2023/04/04 20:52:05;;;;;;;33.20;16.00;;;1.60;60.90;;;;;;10437136;28;20245;-78
2023/04/04 20:57:28;;;;;;;21.23;11.63;;;1.50;65.30;;;;;;10421268;28;20395;-79
2023/04/04 21:02:49;;;;;;;19.30;10.77;;;1.50;65.30;;;;;;10414190;28;20248;-78
2023/04/04 21:08:23;;;;;;;21.80;9.47;;;1.50;64.70;;;;;;10434870;28;20236;-78
2023/04/04 21:13:44;;;;;;;21.90;8.90;;;1.40;72.40;;;;;;10432264;28;20195;-78
2023/04/04 21:19:05;;;;;;;18.80;8.63;;;1.50;67.80;;;;;;10385568;28;20210;-78
2023/04/04 21:24:32;;;;;;;19.20;7.73;;;1.60;68.70;;;;;;10396606;28;20205;-77
2023/04/04 21:29:54;;;;;;;15.50;8.10;;;1.50;67.40;;;;;;10395869;28;20249;-76
2023/04/04 21:35:45;;;;;;;17.77;8.43;;;1.50;69.00;;;;;;10408507;28;20276;-76
2023/04/04 21:41:20;;;;;;;16.57;7.73;;;1.40;67.20;;;;;;10435559;28;20277;-78
2023/04/04 21:46:41;;;;;;;21.00;8.63;;;1.50;73.80;;;;;;10419485;28;20280;-80
2023/04/04 21:52:03;;;;;;;42.47;14.97;;;1.40;69.50;;;;;;10421996;28;20471;-78
2023/04/04 21:57:24;;;;;;;56.60;20.83;;;1.30;72.00;;;;;;10419575;28;20202;-78
2023/04/04 22:02:45;;;;;;;47.27;17.73;;;1.30;75.20;;;;;;10413261;28;20213;-78
2023/04/04 22:08:07;;;;;;;34.67;13.43;;;1.30;76.80;;;;;;10429049;28;20221;-80
2023/04/04 22:13:41;;;;;;;33.57;11.90;;;1.30;78.60;;;;;;10435135;28;20197;-76
2023/04/04 22:19:03;;;;;;;27.50;12.43;;;1.30;75.40;;;;;;10416777;28;20369;-78
2023/04/04 22:24:24;;;;;;;30.37;12.63;;;1.30;80.60;;;;;;10434905;28;20213;-78
2023/04/04 22:29:45;;;;;;;28.70;10.93;;;1.30;81.10;;;;;;10401849;28;20437;-76
2023/04/04 22:35:08;;;;;;;17.40;8.87;;;1.10;82.30;;;;;;10401540;28;20209;-79
2023/04/04 22:40:31;;;;;;;22.37;9.87;;;0.90;86.60;;;;;;10402736;28;20197;-77
2023/04/04 22:45:52;;;;;;;23.00;9.97;;;0.90;89.70;;;;;;10409991;28;20229;-78
2023/04/04 22:51:16;;;;;;;22.20;9.77;;;1.00;90.50;;;;;;10442382;28;20459;-78
2023/04/04 22:56:37;;;;;;;19.73;7.87;;;1.10;85.80;;;;;;10417164;28;20207;-79
2023/04/04 23:01:58;;;;;;;18.37;8.63;;;1.00;87.30;;;;;;10409762;28;20245;-79
2023/04/04 23:07:20;;;;;;;19.27;8.67;;;1.00;86.50;;;;;;10402731;28;20207;-77
2023/04/04 23:12:41;;;;;;;19.73;9.03;;;1.10;85.30;;;;;;10399895;28;20220;-78
2023/04/04 23:18:03;;;;;;;21.47;8.47;;;1.20;84.10;;;;;;10422102;28;20220;-78
2023/04/04 23:23:24;;;;;;;16.67;7.97;;;1.20;78.10;;;;;;10386312;28;20197;-78
2023/04/04 23:28:45;;;;;;;12.03;5.83;;;1.30;75.20;;;;;;10439697;28;20307;-78
2023/04/04 23:34:07;;;;;;;9.70;5.33;;;1.40;71.40;;;;;;10438319;28;20274;-78
2023/04/04 23:39:28;;;;;;;6.67;4.00;;;1.40;64.30;;;;;;10404642;28;20210;-78
2023/04/04 23:44:50;;;;;;;7.90;4.47;;;1.40;61.80;;;;;;10435598;28;20228;-78
2023/04/04 23:50:11;;;;;;;8.77;4.63;;;1.40;59.30;;;;;;10408390;28;20225;-78
2023/04/04 23:55:32;;;;;;;7.93;4.93;;;1.50;62.10;;;;;;10400939;28;20389;-78
